Página principal
METAR-TAF:

METAR-TAF

Aeroportos :

Bamako, Mali

Aeroporto Internacional Modibo Keita

latitude: 12-32N, longitude: 007-57W, altura: 380 m

Observação actual do tempo

O boletim foi feito há 42 minutos, às 23:00 UTC
Vento 4 kt de es-sudeste
Temperatura 26°C
Humidade 48%
Pressão 1015 hPa
Visibilidade: 8000 m

METAR: GABS 192300Z 12004KT 8000 NSC 26/14 Q1015 NOSIG

Hora: 23:42 (23:42 UTC)

Previsão

O boletim foi feito há 42 minutos, às 23:00 UTC
Previsão válida de 20 às 00 UTC a 21 às 06 UTC
Vento 4 kt de es-sudeste com rajadas de 15 kt
Visibilidade: 8000 m
Probabilidade 40% :
Temporariamente
de 20 às 06 UTC a 20 às 12 UTC
Visibilidade: 4500 m
bruma

TAF: GABS 192300Z 2000/2106 12004G15KT 8000 NSC PROB40 TEMPO 2006/2012 4500 HZ

Observações e previsões do tempo de mais de 4000 aeroportos (mensagens METAR e TAF).

As estações disponíveis são os pontos amarelos e vermelhos sobre o mapa.

Mova o rato sobre o mapa para ver o nome da estação.

Depois clique no ponto para visualizar as observações e previsões meteorológicas.

Para alterar o mapa : clique nos botões verdes com uma cruz preta para aumentar o zoom; no botão verde com uma pitada de zoom; ou nas setas verdes para mapas adjacentes.


METAR-TAF: